Time;durP1;ratioP1;P1;durP2;ratioP2;P2;SDS_P1;SDS_P2;PMS_P1;PMS_P2;Temp;Humidity;BMP_temperature;BMP_pressure;BME280_temperature;BME280_humidity;BME280_pressure;Samples;Min_cycle;Max_cycle;Signal;HPM_P1;HPM_P2
2023/07/30 00:01:33;;;;;;;14.03;10.50;;;;;;;14.98;100.00;100335.34;7393070;19;20464;-42
2023/07/30 00:04:06;;;;;;;19.50;11.10;;;;;;;14.98;100.00;100337.97;7367206;19;20432;-37
2023/07/30 00:06:36;;;;;;;21.77;13.70;;;;;;;14.90;100.00;100331.78;7392058;19;20412;-43
2023/07/30 00:09:05;;;;;;;24.50;16.10;;;;;;;14.90;100.00;100339.56;7368012;19;20431;-39
2023/07/30 00:11:36;;;;;;;24.40;14.43;;;;;;;14.93;100.00;100338.75;7391904;19;20463;-42
2023/07/30 00:14:06;;;;;;;27.90;15.80;;;;;;;14.94;100.00;100343.97;7367208;19;20959;-43
2023/07/30 00:16:35;;;;;;;25.60;14.70;;;;;;;14.94;100.00;100349.16;7392152;19;20959;-40
2023/07/30 00:19:07;;;;;;;24.53;14.67;;;;;;;14.95;100.00;100357.81;7367088;19;20469;-42
2023/07/30 00:21:37;;;;;;;20.30;13.60;;;;;;;14.97;100.00;100357.00;7392015;19;21134;-43
2023/07/30 00:24:07;;;;;;;20.40;12.97;;;;;;;14.98;100.00;100363.94;7367514;19;20430;-42
2023/07/30 00:26:38;;;;;;;31.27;16.30;;;;;;;15.01;100.00;100362.25;7394293;19;20424;-43
2023/07/30 00:29:08;;;;;;;30.70;18.77;;;;;;;14.99;100.00;100365.69;7368132;19;20427;-43
2023/07/30 00:31:37;;;;;;;31.83;18.70;;;;;;;14.99;100.00;100373.47;7391511;19;20446;-43
2023/07/30 00:34:10;;;;;;;26.00;15.70;;;;;;;15.01;100.00;100372.66;7368001;19;20467;-40
2023/07/30 00:36:40;;;;;;;21.17;12.67;;;;;;;14.97;100.00;100367.38;7391128;19;20403;-39
2023/07/30 00:39:11;;;;;;;15.23;9.53;;;;;;;14.92;100.00;100358.63;7366945;19;20715;-42
2023/07/30 00:41:41;;;;;;;13.50;9.27;;;;;;;14.85;100.00;100356.78;7391014;19;20464;-40
2023/07/30 00:44:10;;;;;;;13.97;9.70;;;;;;;14.83;100.00;100376.66;7365783;19;20445;-42
2023/07/30 00:46:40;;;;;;;15.13;9.67;;;;;;;14.85;100.00;100387.94;7391784;19;20960;-42
2023/07/30 00:49:13;;;;;;;18.47;11.30;;;;;;;14.84;100.00;100386.19;7367841;19;20463;-41
2023/07/30 00:51:43;;;;;;;13.77;9.27;;;;;;;14.79;100.00;100393.91;7391031;19;20999;-43
2023/07/30 00:54:13;;;;;;;13.80;7.77;;;;;;;14.79;100.00;100390.44;7368205;19;20443;-42
2023/07/30 00:56:51;;;;;;;9.00;7.10;;;;;;;14.81;100.00;100400.00;7391667;19;20404;-42
2023/07/30 00:59:21;;;;;;;9.63;6.90;;;;;;;14.82;100.00;100395.69;7366650;19;20494;-42
2023/07/30 01:01:54;;;;;;;10.07;7.03;;;;;;;14.89;100.00;100388.88;7391557;19;20435;-40
2023/07/30 01:04:26;;;;;;;12.13;8.17;;;;;;;14.94;100.00;100371.66;7366847;19;20440;-40
2023/07/30 01:06:56;;;;;;;15.57;9.83;;;;;;;14.94;100.00;100377.72;7391968;19;20486;-38
2023/07/30 01:09:26;;;;;;;10.10;6.93;;;;;;;14.72;100.00;100397.22;7367764;19;20510;-42
2023/07/30 01:11:56;;;;;;;8.60;6.07;;;;;;;14.66;100.00;100408.34;7392445;19;20443;-41
2023/07/30 01:14:27;;;;;;;8.07;6.10;;;;;;;14.64;100.00;100424.72;7359791;19;20437;-40
2023/07/30 01:16:57;;;;;;;10.40;6.67;;;;;;;14.61;100.00;100438.50;7389595;19;20479;-40
2023/07/30 01:19:29;;;;;;;9.40;7.37;;;;;;;14.60;100.00;100451.50;7366190;19;20448;-43
2023/07/30 01:22:01;;;;;;;9.00;6.13;;;;;;;14.62;100.00;100442.91;7388916;19;20514;-47
2023/07/30 01:24:31;;;;;;;13.53;6.80;;;;;;;14.67;100.00;100446.44;7365147;19;21030;-42
2023/07/30 01:27:03;;;;;;;12.90;6.80;;;;;;;14.71;100.00;100448.25;7389236;19;20673;-43
2023/07/30 01:29:38;;;;;;;11.03;7.13;;;;;;;14.58;100.00;100454.03;7365851;19;20425;-42
2023/07/30 01:32:10;;;;;;;9.90;6.57;;;;;;;14.55;100.00;100454.84;7387746;19;20514;-43
2023/07/30 01:34:41;;;;;;;10.53;7.10;;;;;;;14.52;100.00;100454.78;7367021;19;20430;-42
2023/07/30 01:37:15;;;;;;;7.77;6.50;;;;;;;14.55;100.00;100456.56;7389497;19;20483;-39
2023/07/30 01:39:45;;;;;;;8.77;7.27;;;;;;;14.53;100.00;100455.66;7366495;19;20515;-42
2023/07/30 01:42:15;;;;;;;8.13;6.20;;;;;;;14.51;100.00;100466.00;7388959;19;20460;-43
2023/07/30 01:44:44;;;;;;;6.87;6.17;;;;;;;14.48;100.00;100460.78;7365325;19;20435;-42
2023/07/30 01:47:14;;;;;;;13.33;7.07;;;;;;;14.48;100.00;100470.25;7390084;19;20411;-42
2023/07/30 01:49:43;;;;;;;11.53;6.80;;;;;;;14.45;100.00;100461.56;7372343;19;20437;-42
2023/07/30 01:52:15;;;;;;;8.70;6.90;;;;;;;14.42;100.00;100469.28;7396072;19;21181;-42
2023/07/30 01:54:45;;;;;;;10.20;7.30;;;;;;;14.41;100.00;100464.94;7373666;19;20435;-41
2023/07/30 01:57:15;;;;;;;12.23;7.20;;;;;;;14.39;100.00;100464.03;7399111;19;20408;-42
2023/07/30 01:59:45;;;;;;;10.90;7.90;;;;;;;14.38;100.00;100458.81;7374370;19;20823;-42
2023/07/30 02:02:14;;;;;;;13.50;9.00;;;;;;;14.38;100.00;100462.28;7395203;19;20456;-42
2023/07/30 02:04:44;;;;;;;14.20;9.63;;;;;;;14.39;100.00;100471.81;7372338;19;20442;-42
2023/07/30 02:07:16;;;;;;;13.77;10.50;;;;;;;14.37;100.00;100470.94;7396168;19;20824;-42
2023/07/30 02:09:46;;;;;;;11.60;8.80;;;;;;;14.37;100.00;100463.16;7374369;19;20836;-42
2023/07/30 02:12:15;;;;;;;14.90;10.40;;;;;;;14.38;100.00;100470.09;7394649;19;20440;-40
2023/07/30 02:14:45;;;;;;;16.70;10.50;;;;;;;14.37;100.00;100464.84;7373928;19;20451;-42
2023/07/30 02:17:15;;;;;;;12.70;10.07;;;;;;;14.34;100.00;100468.25;7398373;19;21011;-42
2023/07/30 02:19:45;;;;;;;14.40;9.60;;;;;;;14.36;100.00;100470.88;7373462;19;20457;-42
2023/07/30 02:22:17;;;;;;;17.43;9.90;;;;;;;14.35;100.00;100462.22;7394600;19;20449;-43
2023/07/30 02:24:46;;;;;;;13.80;10.70;;;;;;;14.33;100.00;100471.69;7373141;19;20434;-43
2023/07/30 02:27:16;;;;;;;13.93;9.20;;;;;;;14.31;100.00;100476.84;7395940;19;20408;-42
2023/07/30 02:29:45;;;;;;;14.53;9.80;;;;;;;14.31;100.00;100474.25;7372264;19;20447;-41
2023/07/30 02:32:15;;;;;;;16.03;10.37;;;;;;;14.28;100.00;100474.19;7395092;19;20990;-42
2023/07/30 02:34:45;;;;;;;13.70;9.83;;;;;;;14.25;100.00;100478.44;7372547;19;20774;-42
2023/07/30 02:37:17;;;;;;;15.57;10.67;;;;;;;14.24;100.00;100481.84;7395518;19;20419;-42
2023/07/30 02:39:46;;;;;;;14.70;10.17;;;;;;;14.24;100.00;100487.03;7373035;19;20529;-42
2023/07/30 02:42:16;;;;;;;13.30;9.03;;;;;;;14.22;100.00;100488.75;7394634;19;20451;-43
2023/07/30 02:44:45;;;;;;;15.13;9.50;;;;;;;14.18;100.00;100496.47;7372321;19;20454;-41
2023/07/30 02:47:15;;;;;;;12.70;10.00;;;;;;;14.17;100.00;100493.84;7397029;19;20422;-42
2023/07/30 02:49:45;;;;;;;14.43;10.10;;;;;;;14.14;100.00;100494.63;7373036;19;20442;-42
2023/07/30 02:52:17;;;;;;;15.57;10.00;;;;;;;14.13;100.00;100500.66;7394464;19;20617;-43
2023/07/30 02:54:47;;;;;;;14.50;9.80;;;;;;;14.13;100.00;100502.38;7372003;19;20769;-40
2023/07/30 02:57:16;;;;;;;13.67;9.93;;;;;;;14.09;100.00;100511.81;7397093;19;20905;-42
2023/07/30 02:59:46;;;;;;;17.23;10.37;;;;;;;14.11;100.00;100510.13;7371941;19;20447;-42
2023/07/30 03:02:15;;;;;;;14.83;10.87;;;;;;;14.07;100.00;100516.09;7394139;19;20507;-42
2023/07/30 03:04:45;;;;;;;16.47;10.40;;;;;;;14.07;100.00;100516.09;7370075;19;20804;-42
2023/07/30 03:07:18;;;;;;;17.63;10.90;;;;;;;14.09;100.00;100522.19;7394768;19;20419;-42
2023/07/30 03:09:48;;;;;;;14.90;10.40;;;;;;;14.07;100.00;100516.09;7372342;19;20426;-41
2023/07/30 03:12:17;;;;;;;15.27;10.97;;;;;;;14.06;100.00;100511.75;7393870;19;20454;-42
2023/07/30 03:14:47;;;;;;;18.60;11.30;;;;;;;14.01;100.00;100521.13;7370624;19;20427;-39
2023/07/30 03:17:16;;;;;;;21.33;11.90;;;;;;;13.99;100.00;100517.59;7393386;19;20495;-43
2023/07/30 03:19:46;;;;;;;24.50;15.07;;;;;;;14.06;100.00;100523.84;7371111;19;20435;-42
2023/07/30 03:22:18;;;;;;;22.50;12.33;;;;;;;14.02;100.00;100528.06;7392510;19;20460;-42
2023/07/30 03:24:48;;;;;;;17.97;11.60;;;;;;;13.96;100.00;100526.22;7372346;19;20425;-42
2023/07/30 03:27:18;;;;;;;18.33;11.53;;;;;;;13.93;100.00;100523.53;7396269;19;20403;-43
2023/07/30 03:29:47;;;;;;;16.90;12.07;;;;;;;13.92;100.00;100526.97;7371491;19;20419;-42
2023/07/30 03:32:17;;;;;;;19.37;12.93;;;;;;;13.86;100.00;100522.53;7393934;19;20456;-40
2023/07/30 03:34:47;;;;;;;20.23;12.00;;;;;;;13.88;100.00;100528.63;7371329;19;20788;-39
2023/07/30 03:37:19;;;;;;;19.00;13.00;;;;;;;13.87;100.00;100529.47;7393022;19;20424;-40
2023/07/30 03:39:48;;;;;;;30.30;14.40;;;;;;;13.89;100.00;100532.97;7370908;19;21208;-41
2023/07/30 03:42:18;;;;;;;20.33;13.90;;;;;;;13.88;100.00;100533.81;7392522;19;20539;-40
2023/07/30 03:44:47;;;;;;;20.53;13.23;;;;;;;13.86;100.00;100527.72;7370444;19;20944;-38
2023/07/30 03:47:18;;;;;;;19.20;14.00;;;;;;;13.84;100.00;100539.75;7393713;19;20777;-41
2023/07/30 03:49:47;;;;;;;18.00;12.83;;;;;;;13.80;100.00;100532.75;7370504;19;20427;-40
2023/07/30 03:52:19;;;;;;;19.40;12.77;;;;;;;13.84;100.00;100539.75;7392601;19;20523;-42
2023/07/30 03:54:50;;;;;;;23.43;14.03;;;;;;;13.83;100.00;100537.09;7370161;19;20423;-41
2023/07/30 03:57:20;;;;;;;20.50;13.23;;;;;;;13.82;100.00;100536.25;7393366;19;20399;-42
2023/07/30 03:59:49;;;;;;;25.00;14.70;;;;;;;13.83;100.00;100545.78;7369773;19;20450;-39
2023/07/30 04:02:19;;;;;;;30.47;15.30;;;;;;;13.78;100.00;100544.78;7393200;19;20465;-42
2023/07/30 04:04:50;;;;;;;24.17;15.10;;;;;;;13.82;100.00;100544.03;7370387;19;21366;-39
2023/07/30 04:07:22;;;;;;;24.20;13.70;;;;;;;13.80;100.00;100552.59;7392801;19;20978;-39
2023/07/30 04:09:51;;;;;;;21.73;14.43;;;;;;;13.81;100.00;100555.25;7370481;19;20425;-39
2023/07/30 04:12:21;;;;;;;21.13;14.13;;;;;;;13.78;100.00;100549.97;7391269;19;20462;-42
2023/07/30 04:14:51;;;;;;;21.27;14.90;;;;;;;13.77;100.00;100546.50;7369403;19;20443;-39
2023/07/30 04:17:20;;;;;;;23.20;15.47;;;;;;;13.79;100.00;100546.53;7392002;19;20399;-42
2023/07/30 04:19:50;;;;;;;23.20;14.70;;;;;;;13.78;100.00;100547.38;7368506;19;20420;-37
2023/07/30 04:22:23;;;;;;;25.10;14.97;;;;;;;13.79;100.00;100556.91;7391529;19;21019;-41
2023/07/30 04:24:52;;;;;;;27.40;14.00;;;;;;;13.81;100.00;100550.06;7369313;19;20780;-38
2023/07/30 04:27:22;;;;;;;28.97;16.10;;;;;;;13.82;100.00;100553.50;7393326;19;20410;-42
2023/07/30 04:29:52;;;;;;;22.93;14.70;;;;;;;13.82;100.00;100551.81;7369326;19;20435;-38
2023/07/30 04:32:22;;;;;;;23.60;14.53;;;;;;;13.81;100.00;100555.25;7391538;19;20837;-42
2023/07/30 04:34:51;;;;;;;26.50;13.90;;;;;;;13.81;100.00;100560.44;7367973;19;20851;-40
2023/07/30 04:37:23;;;;;;;25.77;15.10;;;;;;;13.83;100.00;100558.75;7392001;19;20946;-40
2023/07/30 04:39:53;;;;;;;25.83;15.77;;;;;;;13.84;100.00;100554.44;7369979;19;20423;-38
2023/07/30 04:42:23;;;;;;;32.93;15.97;;;;;;;13.89;100.00;100558.00;7391873;19;20454;-38
2023/07/30 04:44:52;;;;;;;22.77;14.53;;;;;;;13.89;100.00;100558.00;7366672;19;20419;-41
2023/07/30 04:47:22;;;;;;;26.23;17.00;;;;;;;13.89;100.00;100564.06;7392143;19;20412;-40
2023/07/30 04:49:51;;;;;;;27.90;16.20;;;;;;;13.91;100.00;100567.56;7367610;19;20434;-40
2023/07/30 04:52:24;;;;;;;25.70;14.80;;;;;;;13.94;100.00;100566.78;7390995;19;20548;-38
2023/07/30 04:54:53;;;;;;;24.67;15.23;;;;;;;13.96;100.00;100566.81;7368548;19;20426;-40
2023/07/30 04:57:23;;;;;;;27.43;13.13;;;;;;;13.95;100.00;100565.06;7391907;19;20395;-39
2023/07/30 04:59:52;;;;;;;26.60;14.80;;;;;;;14.00;100.00;100569.53;7368655;19;20499;-40
2023/07/30 05:02:22;;;;;;;29.97;13.40;;;;;;;14.04;100.00;100567.88;7391359;19;20523;-40
2023/07/30 05:04:51;;;;;;;27.63;14.67;;;;;;;14.06;100.00;100571.41;7367939;19;20510;-41
2023/07/30 05:07:24;;;;;;;25.37;12.93;;;;;;;14.09;100.00;100565.41;7390959;19;20962;-39
2023/07/30 05:09:53;;;;;;;20.47;11.90;;;;;;;14.12;100.00;100565.47;7367280;19;20419;-41
2023/07/30 05:12:23;;;;;;;24.93;14.03;;;;;;;14.18;100.00;100571.72;7391197;19;20526;-39
2023/07/30 05:14:52;;;;;;;21.47;12.63;;;;;;;14.20;100.00;100563.94;7364072;19;20791;-42
2023/07/30 05:17:22;;;;;;;23.40;13.77;;;;;;;14.23;100.00;100557.94;7391399;19;20425;-42
2023/07/30 05:19:51;;;;;;;24.17;13.37;;;;;;;14.29;100.00;100560.69;7367876;19;20427;-39
2023/07/30 05:22:25;;;;;;;26.27;13.63;;;;;;;14.34;100.00;100555.59;7390443;19;20877;-42
2023/07/30 05:24:54;;;;;;;18.10;11.33;;;;;;;14.35;100.00;100559.97;7374877;19;20795;-42
2023/07/30 05:27:24;;;;;;;18.13;11.23;;;;;;;14.33;100.00;100562.53;7397246;19;20486;-39
2023/07/30 05:29:53;;;;;;;24.00;14.00;;;;;;;14.36;100.00;100565.16;7374168;19;20970;-41
2023/07/30 05:32:23;;;;;;;21.33;12.70;;;;;;;14.31;100.00;100559.88;7396799;19;20510;-41
2023/07/30 05:34:53;;;;;;;19.33;11.50;;;;;;;14.36;100.00;100552.19;7373634;19;20415;-42
2023/07/30 05:37:25;;;;;;;23.63;11.23;;;;;;;14.44;100.00;100562.75;7397090;19;20407;-40
2023/07/30 05:39:55;;;;;;;20.40;11.33;;;;;;;14.44;100.00;100557.56;7374425;19;20969;-41
2023/07/30 05:42:24;;;;;;;18.30;10.10;;;;;;;14.44;100.00;100539.41;7397321;19;21005;-40
2023/07/30 05:44:54;;;;;;;18.53;9.60;;;;;;;14.40;100.00;100530.66;7373329;19;20420;-42
2023/07/30 05:47:24;;;;;;;20.90;9.67;;;;;;;14.47;100.00;100525.63;7395737;19;21002;-40
2023/07/30 05:49:53;;;;;;;16.13;9.73;;;;;;;14.43;100.00;100520.38;7373917;19;20776;-39
2023/07/30 05:52:25;;;;;;;21.50;10.73;;;;;;;14.53;100.00;100525.75;7396163;19;20459;-41
2023/07/30 05:54:55;;;;;;;17.87;9.90;;;;;;;14.59;100.00;100536.28;7374179;19;20427;-42
2023/07/30 05:57:24;;;;;;;19.87;8.83;;;;;;;14.53;100.00;100525.75;7399575;19;21249;-42
2023/07/30 05:59:54;;;;;;;20.93;9.43;;;;;;;14.57;100.00;100538.81;7373604;19;20434;-40
2023/07/30 06:02:24;;;;;;;16.10;9.33;;;;;;;14.54;100.00;100518.00;7395870;19;20548;-39
2023/07/30 06:04:53;;;;;;;22.97;10.00;;;;;;;14.63;100.00;100508.66;7372469;19;20506;-42
2023/07/30 06:07:26;;;;;;;21.53;9.30;;;;;;;14.75;100.00;100515.84;7395896;19;20483;-42
2023/07/30 06:09:56;;;;;;;28.97;13.77;;;;;;;14.78;100.00;100526.31;7373591;19;20443;-38
2023/07/30 06:12:25;;;;;;;18.03;8.70;;;;;;;14.79;100.00;100528.06;7395646;19;20449;-38
2023/07/30 06:14:55;;;;;;;21.97;10.77;;;;;;;14.70;100.00;100514.00;7372542;19;20423;-42
2023/07/30 06:17:25;;;;;;;20.03;10.20;;;;;;;14.71;100.00;100510.56;7396701;19;20439;-42
2023/07/30 06:19:54;;;;;;;19.00;8.93;;;;;;;14.69;100.00;100504.47;7372644;19;20426;-40
2023/07/30 06:22:27;;;;;;;23.03;10.37;;;;;;;14.74;100.00;100503.69;7394866;19;20810;-39
2023/07/30 06:24:56;;;;;;;19.77;8.87;;;;;;;14.84;100.00;100513.44;7373829;19;20419;-42
2023/07/30 06:27:26;;;;;;;31.10;10.97;;;;;;;14.89;100.00;100514.44;7395356;19;20412;-41
2023/07/30 06:29:55;;;;;;;28.50;10.87;;;;;;;14.83;100.00;100496.97;7372859;19;20423;-40
2023/07/30 06:32:25;;;;;;;22.37;9.77;;;;;;;14.88;100.00;100488.41;7395135;19;20448;-43
2023/07/30 06:34:55;;;;;;;20.03;8.57;;;;;;;14.99;100.00;100513.75;7371422;19;20427;-41
2023/07/30 06:37:27;;;;;;;20.50;9.93;;;;;;;14.97;100.00;100518.03;7395620;19;20407;-42
2023/07/30 06:39:57;;;;;;;28.10;9.97;;;;;;;15.05;100.00;100515.59;7372678;19;20415;-43
2023/07/30 06:42:26;;;;;;;25.70;9.90;;;;;;;15.08;100.00;100525.19;7394030;19;20498;-37
2023/07/30 06:44:56;;;;;;;29.77;9.27;;;;;;;15.07;100.00;100523.44;7371489;19;20471;-41
2023/07/30 06:47:25;;;;;;;21.47;10.73;;;;;;;15.06;100.00;100511.28;7395251;19;20511;-40
2023/07/30 06:49:55;;;;;;;19.43;8.60;;;;;;;15.10;100.00;100497.50;7371783;19;20419;-42
2023/07/30 06:52:27;;;;;;;19.50;9.30;;;;;;;15.15;100.00;100502.78;7395988;19;20461;-39
2023/07/30 06:54:57;;;;;;;18.30;9.43;;;;;;;15.25;100.00;100528.09;7372197;19;20434;-40
2023/07/30 06:57:26;;;;;;;21.43;9.20;;;;;;;15.31;100.00;100522.13;7397370;19;20826;-42
2023/07/30 06:59:56;;;;;;;24.27;10.73;;;;;;;15.24;100.00;100490.81;7371357;19;20423;-43
2023/07/30 07:02:25;;;;;;;21.90;11.53;;;;;;;15.31;100.00;100483.16;7394229;19;21315;-42
2023/07/30 07:04:56;;;;;;;25.93;12.67;;;;;;;15.42;100.00;100504.16;7372227;19;20433;-42
2023/07/30 07:07:28;;;;;;;18.87;11.47;;;;;;;15.38;100.00;100479.78;7394394;19;20411;-42
2023/07/30 07:09:58;;;;;;;32.00;12.23;;;;;;;15.43;100.00;100490.31;7371592;19;20419;-42
2023/07/30 07:12:28;;;;;;;23.97;14.20;;;;;;;15.53;100.00;100513.88;7394160;19;20523;-40
2023/07/30 07:15:01;;;;;;;21.07;12.67;;;;;;;15.61;100.00;100532.22;7370751;19;20514;-43
2023/07/30 07:17:30;;;;;;;27.87;14.43;;;;;;;15.59;100.00;100514.84;7396886;19;20486;-41
2023/07/30 07:20:00;;;;;;;27.90;14.63;;;;;;;15.51;100.00;100487.00;7369746;19;20426;-43
2023/07/30 07:22:33;;;;;;;28.40;15.23;;;;;;;15.59;100.00;100483.63;7393615;19;20460;-43
2023/07/30 07:25:02;;;;;;;27.07;13.53;;;;;;;15.49;100.00;100464.41;7370653;19;20869;-41
2023/07/30 07:27:32;;;;;;;30.10;14.80;;;;;;;15.47;100.00;100447.88;7394663;19;20403;-42
2023/07/30 07:30:02;;;;;;;36.43;13.70;;;;;;;15.48;100.00;100411.53;7368844;19;20462;-42
2023/07/30 07:32:37;;;;;;;31.67;14.33;;;;;;;15.51;100.00;100409.00;7393893;19;20455;-41
2023/07/30 07:35:09;;;;;;;35.47;14.40;;;;;;;15.57;100.00;100400.41;7370736;19;20429;-42
2023/07/30 07:37:41;;;;;;;25.17;13.53;;;;;;;15.62;100.00;100408.25;7394650;19;20487;-43
2023/07/30 07:40:11;;;;;;;27.30;13.93;;;;;;;15.68;100.00;100399.69;7370004;19;20451;-43
2023/07/30 07:42:41;;;;;;;30.57;12.43;;;;;;;15.60;100.00;100376.19;7393884;19;20523;-41
2023/07/30 07:45:11;;;;;;;25.97;12.40;;;;;;;15.63;100.00;100384.00;7369284;19;20438;-43
2023/07/30 07:47:41;;;;;;;25.90;11.90;;;;;;;15.66;100.00;100379.72;7393020;19;20482;-43
2023/07/30 07:50:11;;;;;;;33.33;14.93;;;;;;;15.82;100.00;100394.69;7369527;19;20423;-43
2023/07/30 07:52:43;;;;;;;23.60;11.20;;;;;;;15.80;100.00;100350.47;7393596;19;20562;-42
2023/07/30 07:55:13;;;;;;;23.30;12.33;;;;;;;15.75;100.00;100277.56;7370060;19;20856;-42
2023/07/30 07:57:42;;;;;;;28.07;12.23;;;;;;;15.69;100.00;100191.66;7394580;19;20408;-43
2023/07/30 08:00:13;;;;;;;18.90;11.50;;;;;;;15.76;100.00;100146.69;7369462;19;20420;-43
2023/07/30 08:02:42;;;;;;;28.63;12.57;;;;;;;15.80;100.00;100109.44;7393241;19;20450;-42
2023/07/30 08:05:12;;;;;;;28.17;11.30;;;;;;;15.77;100.00;100080.81;7369364;19;20445;-42
2023/07/30 08:07:44;;;;;;;27.67;11.67;;;;;;;15.85;100.00;100020.19;7392708;19;20420;-43
2023/07/30 08:10:14;;;;;;;28.63;12.53;;;;;;;15.96;100.00;99982.19;7368719;19;20553;-42
2023/07/30 08:12:44;;;;;;;25.20;12.20;;;;;;;16.13;100.00;99950.19;7393053;19;20443;-42
2023/07/30 08:15:13;;;;;;;27.87;11.10;;;;;;;16.25;100.00;99868.72;7369079;19;21021;-41
2023/07/30 08:17:43;;;;;;;24.77;9.93;;;;;;;16.08;100.00;99824.38;7393240;19;20431;-43
2023/07/30 08:20:13;;;;;;;24.80;9.43;;;;;;;16.11;100.00;99824.41;7368493;19;21314;-42
2023/07/30 08:22:46;;;;;;;24.00;9.00;;;;;;;16.17;100.00;99860.88;7392813;19;20443;-43
2023/07/30 08:25:15;;;;;;;18.37;8.20;;;;;;;16.18;100.00;99922.47;7368400;19;20430;-43
2023/07/30 08:27:45;;;;;;;23.17;9.40;;;;;;;16.26;100.00;100014.44;7393878;19;20479;-43
2023/07/30 08:30:15;;;;;;;19.87;8.00;;;;;;;16.42;100.00;100132.56;7368092;19;20491;-43
2023/07/30 08:32:45;;;;;;;20.67;8.90;;;;;;;16.41;100.00;100228.88;7392814;19;20450;-43
2023/07/30 08:35:14;;;;;;;23.67;9.80;;;;;;;16.42;100.00;100267.06;7368424;19;20530;-43
2023/07/30 08:37:47;;;;;;;16.50;8.60;;;;;;;16.49;100.00;100300.13;7393534;19;20427;-43
2023/07/30 08:40:17;;;;;;;18.80;8.40;;;;;;;16.70;100.00;100335.03;7366227;19;20436;-43
2023/07/30 08:42:46;;;;;;;18.90;7.97;;;;;;;16.79;100.00;100358.59;7387610;19;20435;-43
2023/07/30 08:45:18;;;;;;;21.00;8.10;;;;;;;16.62;100.00;100366.22;7366757;19;20423;-43
2023/07/30 08:47:48;;;;;;;18.93;8.53;;;;;;;16.91;100.00;100383.00;7394434;19;20479;-43
2023/07/30 08:50:18;;;;;;;29.77;13.33;;;;;;;16.82;100.00;100415.06;7365643;19;20438;-43
2023/07/30 08:52:50;;;;;;;20.33;10.17;;;;;;;16.83;100.00;100420.25;7391901;19;20444;-43
2023/07/30 08:55:21;;;;;;;22.80;8.37;;;;;;;17.01;100.00;100444.75;7365516;19;20444;-43
2023/07/30 08:57:51;;;;;;;22.70;11.10;;;;;;;17.09;100.00;100466.63;7391761;19;20412;-43
2023/07/30 09:00:22;;;;;;;30.50;14.20;;;;;;;17.24;100.00;100478.03;7366295;19;20506;-43
2023/07/30 09:02:54;;;;;;;19.73;9.40;;;;;;;17.10;100.00;100490.94;7391440;19;20511;-43
2023/07/30 09:05:25;;;;;;;21.80;8.17;;;;;;;17.22;100.00;100506.69;7367259;19;20424;-43
2023/07/30 09:07:57;;;;;;;18.50;7.60;;;;;;;16.97;100.00;100508.16;7392387;19;20474;-43
2023/07/30 09:10:28;;;;;;;19.40;7.20;;;;;;;16.95;100.00;100513.34;7366485;19;20443;-44
2023/07/30 09:12:59;;;;;;;15.40;6.43;;;;;;;17.20;100.00;100523.19;7391618;19;20814;-43
2023/07/30 09:15:33;;;;;;;14.07;5.97;;;;;;;17.34;100.00;100518.97;7367111;19;21005;-44
2023/07/30 09:18:03;;;;;;;27.97;10.70;;;;;;;17.33;100.00;100524.19;7392909;19;20416;-43
2023/07/30 09:20:39;;;;;;;30.00;12.20;;;;;;;17.17;100.00;100523.16;7366749;19;20451;-44
2023/07/30 09:23:12;;;;;;;12.00;4.60;;;;;;;17.14;100.00;100537.88;7390803;19;20449;-44
2023/07/30 09:25:42;;;;;;;14.93;5.33;;;;;;;17.28;100.00;100540.66;7370257;19;20823;-43
2023/07/30 09:28:13;;;;;;;30.57;12.80;;;;;;;17.43;100.00;100538.19;7390162;19;20411;-43
2023/07/30 09:30:42;;;;;;;19.70;6.77;;;;;;;17.74;100.00;100543.69;7367605;19;20443;-43
2023/07/30 09:33:12;;;;;;;18.47;5.53;;;;;;;17.93;100.00;100558.66;7384844;19;20435;-44
2023/07/30 09:35:42;;;;;;;15.27;4.60;;;;;;;18.12;100.00;100579.72;7368773;19;20442;-44
2023/07/30 09:38:14;;;;;;;14.40;5.07;;;;;;;18.17;100.00;100598.91;7389317;19;20470;-43
2023/07/30 09:40:44;;;;;;;14.37;5.90;;;;;;;18.22;100.00;100610.22;7369123;19;20862;-44
2023/07/30 09:43:13;;;;;;;21.33;8.60;;;;;;;18.45;100.00;100630.44;7390013;19;20518;-44
2023/07/30 09:45:43;;;;;;;12.63;4.20;;;;;;;18.53;100.00;100645.28;7369789;19;20454;-44
2023/07/30 09:48:12;;;;;;;21.90;7.23;;;;;;;18.23;100.00;100655.50;7390163;19;20407;-44
2023/07/30 09:50:42;;;;;;;16.63;5.30;;;;;;;18.21;100.00;100673.75;7366961;19;20984;-44
2023/07/30 09:53:16;;;;;;;15.40;7.60;;;;;;;18.10;100.00;100691.06;7389337;19;20655;-43
2023/07/30 09:55:45;;;;;;;20.73;7.10;;;;;;;18.03;100.00;100699.66;7369081;19;20522;-43
2023/07/30 09:58:15;;;;;;;23.23;8.80;;;;;;;18.01;100.00;100704.00;7389116;19;20427;-44
2023/07/30 10:00:46;;;;;;;36.07;10.83;;;;;;;18.05;100.00;100703.19;7368286;19;20449;-44
2023/07/30 10:03:18;;;;;;;22.53;9.30;;;;;;;18.03;100.00;100710.97;7389139;19;21078;-44
2023/07/30 10:05:49;;;;;;;17.50;6.77;;;;;;;17.87;100.00;100730.81;7369052;19;20522;-44
2023/07/30 10:08:24;;;;;;;26.23;11.20;;;;;;;17.93;100.00;100733.50;7365354;19;20478;-43
2023/07/30 10:10:54;;;;;;;20.83;9.53;;;;;;;18.04;100.00;100724.88;7394104;19;20477;-43
2023/07/30 10:13:24;;;;;;;11.00;5.63;;;;;;;18.21;100.00;100720.75;7371118;19;20523;-44
2023/07/30 10:15:54;;;;;;;16.43;7.40;;;;;;;18.40;100.00;100726.16;7397608;19;20403;-44
2023/07/30 10:18:25;;;;;;;18.77;6.50;;;;;;;18.68;100.00;100725.50;7372119;19;20410;-44
2023/07/30 10:20:57;;;;;;;20.67;7.73;;;;;;;18.69;100.00;100746.44;7396941;19;20454;-44
2023/07/30 10:23:35;;;;;;;16.97;6.87;;;;;;;18.54;100.00;100755.00;7371824;19;20506;-44
2023/07/30 10:26:12;;;;;;;20.40;7.00;;;;;;;18.46;100.00;100770.59;7393802;19;20411;-44
2023/07/30 10:28:43;;;;;;;17.73;8.07;;;;;;;18.47;100.00;100774.97;7371334;19;20419;-44
2023/07/30 10:31:13;;;;;;;15.20;7.63;;;;;;;18.42;100.00;100788.84;7392992;19;20416;-43
2023/07/30 10:33:52;;;;;;;13.40;7.37;;;;;;;18.41;100.00;100776.66;7373726;19;20405;-44
2023/07/30 10:36:33;;;;;;;25.77;12.00;;;;;;;18.27;100.00;100797.41;7394522;19;20400;-43
2023/07/30 10:39:13;;;;;;;17.30;6.57;;;;;;;18.32;100.00;100783.53;7370126;19;21018;-43
2023/07/30 10:41:43;;;;;;;20.33;8.03;;;;;;;18.38;100.00;100789.66;7394372;19;20878;-43
2023/07/30 10:44:25;;;;;;;25.73;10.73;;;;;;;18.35;100.00;100782.69;7369749;19;20452;-44
2023/07/30 10:46:55;;;;;;;23.33;9.40;;;;;;;18.42;100.00;100775.78;7395557;19;20403;-44
2023/07/30 10:49:25;;;;;;;17.60;6.73;;;;;;;18.33;100.00;100779.19;7370399;19;20643;-44
2023/07/30 10:51:57;;;;;;;14.33;6.40;;;;;;;18.35;100.00;100761.78;7394454;19;20507;-44
2023/07/30 10:54:35;;;;;;;27.83;14.40;;;;;;;18.44;100.00;100751.44;7370444;19;20979;-43
2023/07/30 10:57:06;;;;;;;24.50;10.30;;;;;;;18.34;100.00;100760.03;7394002;19;20412;-44
2023/07/30 10:59:37;;;;;;;23.43;9.33;;;;;;;18.39;100.00;100760.06;7371066;19;20524;-44
2023/07/30 11:02:08;;;;;;;16.60;7.97;;;;;;;18.59;100.00;100778.56;7394466;19;20439;-43
2023/07/30 11:04:38;;;;;;;25.30;6.70;;;;;;;18.57;100.00;100783.75;7370749;19;20427;-43
2023/07/30 11:07:08;;;;;;;14.90;6.90;;;;;;;18.64;100.00;100792.53;7395452;19;20845;-44
2023/07/30 11:09:40;;;;;;;24.57;9.87;;;;;;;18.69;100.00;100803.03;7370690;19;20427;-44
2023/07/30 11:12:11;;;;;;;14.03;4.80;;;;;;;18.88;100.00;100796.22;7393020;19;20443;-44
2023/07/30 11:14:41;;;;;;;22.20;9.20;;;;;;;18.75;100.00;100811.81;7370326;19;20966;-44
2023/07/30 11:17:11;;;;;;;19.00;8.23;;;;;;;18.60;100.00;100829.94;7393892;19;20420;-44
2023/07/30 11:19:45;;;;;;;9.87;5.10;;;;;;;18.71;100.00;100836.16;7370374;19;20441;-44
2023/07/30 11:22:15;;;;;;;9.10;3.20;;;;;;;18.87;100.00;100839.78;7391724;19;20449;-44